sensor_id;sensor_type;location;lat;lon;timestamp;P1;durP1;ratioP1;P2;durP2;ratioP2
19816;SDS011;68323;49.394;8.434;2023-08-21T00:01:25;10.45;;;5.85;;
19816;SDS011;68323;49.394;8.434;2023-08-21T00:03:50;8.63;;;5.90;;
19816;SDS011;68323;49.394;8.434;2023-08-21T00:06:16;12.02;;;5.53;;
19816;SDS011;68323;49.394;8.434;2023-08-21T00:08:41;8.95;;;6.13;;
19816;SDS011;68323;49.394;8.434;2023-08-21T00:11:07;9.15;;;6.10;;
19816;SDS011;68323;49.394;8.434;2023-08-21T00:13:32;8.35;;;6.22;;
19816;SDS011;68323;49.394;8.434;2023-08-21T00:15:58;10.43;;;6.30;;
19816;SDS011;68323;49.394;8.434;2023-08-21T00:18:23;11.25;;;6.25;;
19816;SDS011;68323;49.394;8.434;2023-08-21T00:20:49;9.95;;;6.60;;
19816;SDS011;68323;49.394;8.434;2023-08-21T00:23:14;13.95;;;6.88;;
19816;SDS011;68323;49.394;8.434;2023-08-21T00:25:40;8.77;;;6.35;;
19816;SDS011;68323;49.394;8.434;2023-08-21T00:28:10;9.98;;;6.63;;
19816;SDS011;68323;49.394;8.434;2023-08-21T00:30:35;14.15;;;6.90;;
19816;SDS011;68323;49.394;8.434;2023-08-21T00:33:01;10.18;;;6.90;;
19816;SDS011;68323;49.394;8.434;2023-08-21T00:35:27;11.05;;;6.90;;
19816;SDS011;68323;49.394;8.434;2023-08-21T00:37:52;10.45;;;7.88;;
19816;SDS011;68323;49.394;8.434;2023-08-21T00:40:18;10.05;;;7.30;;
19816;SDS011;68323;49.394;8.434;2023-08-21T00:42:43;11.43;;;7.53;;
19816;SDS011;68323;49.394;8.434;2023-08-21T00:45:09;11.10;;;7.30;;
19816;SDS011;68323;49.394;8.434;2023-08-21T00:47:35;13.88;;;6.78;;
19816;SDS011;68323;49.394;8.434;2023-08-21T00:50:01;9.48;;;6.75;;
19816;SDS011;68323;49.394;8.434;2023-08-21T00:52:28;10.40;;;6.80;;
19816;SDS011;68323;49.394;8.434;2023-08-21T00:54:53;9.13;;;6.72;;
19816;SDS011;68323;49.394;8.434;2023-08-21T00:57:20;9.80;;;6.88;;
19816;SDS011;68323;49.394;8.434;2023-08-21T00:59:46;7.57;;;6.72;;
19816;SDS011;68323;49.394;8.434;2023-08-21T01:02:12;9.45;;;7.35;;
19816;SDS011;68323;49.394;8.434;2023-08-21T01:04:38;11.75;;;7.53;;
19816;SDS011;68323;49.394;8.434;2023-08-21T01:07:03;9.38;;;6.82;;
19816;SDS011;68323;49.394;8.434;2023-08-21T01:09:43;9.70;;;7.43;;
19816;SDS011;68323;49.394;8.434;2023-08-21T01:12:35;12.43;;;8.00;;
19816;SDS011;68323;49.394;8.434;2023-08-21T01:15:07;11.48;;;7.95;;
19816;SDS011;68323;49.394;8.434;2023-08-21T01:17:35;11.15;;;7.82;;
19816;SDS011;68323;49.394;8.434;2023-08-21T01:20:02;10.60;;;7.88;;
19816;SDS011;68323;49.394;8.434;2023-08-21T01:22:37;10.18;;;7.93;;
19816;SDS011;68323;49.394;8.434;2023-08-21T01:25:04;13.52;;;8.00;;
19816;SDS011;68323;49.394;8.434;2023-08-21T01:27:31;9.82;;;7.97;;
19816;SDS011;68323;49.394;8.434;2023-08-21T01:29:58;8.80;;;7.32;;
19816;SDS011;68323;49.394;8.434;2023-08-21T01:32:42;9.50;;;7.95;;
19816;SDS011;68323;49.394;8.434;2023-08-21T01:35:23;9.75;;;7.85;;
19816;SDS011;68323;49.394;8.434;2023-08-21T01:37:50;13.85;;;7.55;;
19816;SDS011;68323;49.394;8.434;2023-08-21T01:40:20;11.40;;;8.57;;
19816;SDS011;68323;49.394;8.434;2023-08-21T01:42:49;8.93;;;8.00;;
19816;SDS011;68323;49.394;8.434;2023-08-21T01:45:15;12.52;;;8.27;;
19816;SDS011;68323;49.394;8.434;2023-08-21T01:47:41;9.80;;;7.22;;
19816;SDS011;68323;49.394;8.434;2023-08-21T01:50:07;12.25;;;7.75;;
19816;SDS011;68323;49.394;8.434;2023-08-21T01:52:33;9.85;;;8.15;;
19816;SDS011;68323;49.394;8.434;2023-08-21T01:54:59;14.88;;;8.25;;
19816;SDS011;68323;49.394;8.434;2023-08-21T01:57:24;13.02;;;8.45;;
19816;SDS011;68323;49.394;8.434;2023-08-21T01:59:50;10.10;;;8.35;;
19816;SDS011;68323;49.394;8.434;2023-08-21T02:02:15;10.63;;;8.95;;
19816;SDS011;68323;49.394;8.434;2023-08-21T02:04:41;11.38;;;8.93;;
19816;SDS011;68323;49.394;8.434;2023-08-21T02:07:06;11.65;;;8.15;;
19816;SDS011;68323;49.394;8.434;2023-08-21T02:09:32;13.82;;;8.20;;
19816;SDS011;68323;49.394;8.434;2023-08-21T02:11:58;8.50;;;7.63;;
19816;SDS011;68323;49.394;8.434;2023-08-21T02:14:24;11.38;;;8.48;;
19816;SDS011;68323;49.394;8.434;2023-08-21T02:16:49;12.38;;;7.72;;
19816;SDS011;68323;49.394;8.434;2023-08-21T02:19:15;11.85;;;8.45;;
19816;SDS011;68323;49.394;8.434;2023-08-21T02:21:40;13.32;;;9.07;;
19816;SDS011;68323;49.394;8.434;2023-08-21T02:24:06;11.30;;;9.00;;
19816;SDS011;68323;49.394;8.434;2023-08-21T02:26:31;11.13;;;8.88;;
19816;SDS011;68323;49.394;8.434;2023-08-21T02:28:57;9.65;;;7.93;;
19816;SDS011;68323;49.394;8.434;2023-08-21T02:31:23;12.50;;;8.15;;
19816;SDS011;68323;49.394;8.434;2023-08-21T02:33:48;10.57;;;7.85;;
19816;SDS011;68323;49.394;8.434;2023-08-21T02:36:15;11.60;;;7.90;;
19816;SDS011;68323;49.394;8.434;2023-08-21T02:38:41;9.27;;;7.68;;
19816;SDS011;68323;49.394;8.434;2023-08-21T02:41:06;10.20;;;8.13;;
19816;SDS011;68323;49.394;8.434;2023-08-21T02:43:32;12.70;;;8.13;;
19816;SDS011;68323;49.394;8.434;2023-08-21T02:45:58;14.68;;;8.98;;
19816;SDS011;68323;49.394;8.434;2023-08-21T02:48:24;10.52;;;7.82;;
19816;SDS011;68323;49.394;8.434;2023-08-21T02:50:49;8.52;;;7.72;;
19816;SDS011;68323;49.394;8.434;2023-08-21T02:53:15;14.77;;;7.72;;
19816;SDS011;68323;49.394;8.434;2023-08-21T02:55:40;14.60;;;8.00;;
19816;SDS011;68323;49.394;8.434;2023-08-21T02:58:06;13.77;;;8.27;;
19816;SDS011;68323;49.394;8.434;2023-08-21T03:00:31;10.18;;;8.18;;
19816;SDS011;68323;49.394;8.434;2023-08-21T03:02:57;10.32;;;8.35;;
19816;SDS011;68323;49.394;8.434;2023-08-21T03:05:22;15.30;;;8.45;;
19816;SDS011;68323;49.394;8.434;2023-08-21T03:07:48;15.38;;;8.07;;
19816;SDS011;68323;49.394;8.434;2023-08-21T03:10:13;15.23;;;8.27;;
19816;SDS011;68323;49.394;8.434;2023-08-21T03:12:39;15.13;;;8.23;;
19816;SDS011;68323;49.394;8.434;2023-08-21T03:15:05;8.52;;;6.13;;
19816;SDS011;68323;49.394;8.434;2023-08-21T03:17:31;6.97;;;6.03;;
19816;SDS011;68323;49.394;8.434;2023-08-21T03:19:57;6.68;;;5.90;;
19816;SDS011;68323;49.394;8.434;2023-08-21T03:22:22;9.95;;;6.10;;
19816;SDS011;68323;49.394;8.434;2023-08-21T03:24:48;6.88;;;5.90;;
19816;SDS011;68323;49.394;8.434;2023-08-21T03:27:15;6.82;;;6.13;;
19816;SDS011;68323;49.394;8.434;2023-08-21T03:29:42;7.50;;;6.22;;
19816;SDS011;68323;49.394;8.434;2023-08-21T03:32:13;6.65;;;5.85;;
19816;SDS011;68323;49.394;8.434;2023-08-21T03:34:39;8.20;;;5.88;;
19816;SDS011;68323;49.394;8.434;2023-08-21T03:37:05;6.80;;;6.10;;
19816;SDS011;68323;49.394;8.434;2023-08-21T03:39:30;9.80;;;6.43;;
19816;SDS011;68323;49.394;8.434;2023-08-21T03:41:56;7.90;;;6.28;;
19816;SDS011;68323;49.394;8.434;2023-08-21T03:44:21;8.38;;;6.63;;
19816;SDS011;68323;49.394;8.434;2023-08-21T03:46:47;7.70;;;6.32;;
19816;SDS011;68323;49.394;8.434;2023-08-21T03:49:12;8.02;;;6.22;;
19816;SDS011;68323;49.394;8.434;2023-08-21T03:51:38;9.23;;;6.70;;
19816;SDS011;68323;49.394;8.434;2023-08-21T03:54:04;7.50;;;6.38;;
19816;SDS011;68323;49.394;8.434;2023-08-21T03:56:30;9.57;;;6.90;;
19816;SDS011;68323;49.394;8.434;2023-08-21T03:58:55;10.63;;;7.18;;
19816;SDS011;68323;49.394;8.434;2023-08-21T04:01:21;9.77;;;7.35;;
19816;SDS011;68323;49.394;8.434;2023-08-21T04:03:47;8.50;;;6.65;;
19816;SDS011;68323;49.394;8.434;2023-08-21T04:06:12;8.90;;;7.38;;
19816;SDS011;68323;49.394;8.434;2023-08-21T04:08:38;8.77;;;6.85;;
19816;SDS011;68323;49.394;8.434;2023-08-21T04:11:04;8.68;;;7.32;;
19816;SDS011;68323;49.394;8.434;2023-08-21T04:13:30;8.88;;;7.25;;
19816;SDS011;68323;49.394;8.434;2023-08-21T04:15:56;8.35;;;7.22;;
19816;SDS011;68323;49.394;8.434;2023-08-21T04:18:21;8.13;;;6.78;;
19816;SDS011;68323;49.394;8.434;2023-08-21T04:20:47;9.95;;;7.47;;
19816;SDS011;68323;49.394;8.434;2023-08-21T04:23:13;9.00;;;7.30;;
19816;SDS011;68323;49.394;8.434;2023-08-21T04:25:39;11.02;;;7.75;;
19816;SDS011;68323;49.394;8.434;2023-08-21T04:28:04;11.07;;;7.60;;
19816;SDS011;68323;49.394;8.434;2023-08-21T04:30:32;8.57;;;7.07;;
19816;SDS011;68323;49.394;8.434;2023-08-21T04:32:58;8.65;;;7.25;;
19816;SDS011;68323;49.394;8.434;2023-08-21T04:35:24;8.65;;;6.93;;
19816;SDS011;68323;49.394;8.434;2023-08-21T04:37:49;8.88;;;7.22;;
19816;SDS011;68323;49.394;8.434;2023-08-21T04:40:15;7.70;;;6.45;;
19816;SDS011;68323;49.394;8.434;2023-08-21T04:42:42;9.32;;;7.55;;
19816;SDS011;68323;49.394;8.434;2023-08-21T04:45:09;9.25;;;7.50;;
19816;SDS011;68323;49.394;8.434;2023-08-21T04:47:34;8.75;;;7.20;;
19816;SDS011;68323;49.394;8.434;2023-08-21T04:50:00;8.68;;;6.85;;
19816;SDS011;68323;49.394;8.434;2023-08-21T04:52:26;8.70;;;7.43;;
19816;SDS011;68323;49.394;8.434;2023-08-21T04:54:51;8.50;;;6.95;;
19816;SDS011;68323;49.394;8.434;2023-08-21T04:57:18;9.07;;;7.15;;
19816;SDS011;68323;49.394;8.434;2023-08-21T04:59:45;9.45;;;7.15;;
19816;SDS011;68323;49.394;8.434;2023-08-21T05:02:11;9.48;;;7.05;;
19816;SDS011;68323;49.394;8.434;2023-08-21T05:04:37;7.85;;;7.05;;
19816;SDS011;68323;49.394;8.434;2023-08-21T05:07:03;7.65;;;6.82;;
19816;SDS011;68323;49.394;8.434;2023-08-21T05:09:29;8.07;;;6.88;;
19816;SDS011;68323;49.394;8.434;2023-08-21T05:11:55;9.10;;;7.32;;
19816;SDS011;68323;49.394;8.434;2023-08-21T05:14:21;8.90;;;7.65;;
19816;SDS011;68323;49.394;8.434;2023-08-21T05:16:48;9.80;;;7.93;;
19816;SDS011;68323;49.394;8.434;2023-08-21T05:19:14;9.23;;;7.90;;
19816;SDS011;68323;49.394;8.434;2023-08-21T05:21:39;9.43;;;7.85;;
19816;SDS011;68323;49.394;8.434;2023-08-21T05:24:05;9.50;;;7.25;;
19816;SDS011;68323;49.394;8.434;2023-08-21T05:26:30;9.65;;;7.45;;
19816;SDS011;68323;49.394;8.434;2023-08-21T05:28:56;11.05;;;7.72;;
19816;SDS011;68323;49.394;8.434;2023-08-21T05:31:22;8.77;;;7.28;;
19816;SDS011;68323;49.394;8.434;2023-08-21T05:33:47;8.25;;;7.38;;
19816;SDS011;68323;49.394;8.434;2023-08-21T05:36:13;8.30;;;7.18;;
19816;SDS011;68323;49.394;8.434;2023-08-21T05:38:39;8.48;;;7.03;;
19816;SDS011;68323;49.394;8.434;2023-08-21T05:41:04;9.27;;;7.10;;
19816;SDS011;68323;49.394;8.434;2023-08-21T05:43:30;8.10;;;6.63;;
19816;SDS011;68323;49.394;8.434;2023-08-21T05:45:55;7.47;;;6.68;;
19816;SDS011;68323;49.394;8.434;2023-08-21T05:48:21;7.60;;;6.53;;
19816;SDS011;68323;49.394;8.434;2023-08-21T05:50:50;7.43;;;6.47;;
19816;SDS011;68323;49.394;8.434;2023-08-21T05:53:16;7.05;;;6.35;;
19816;SDS011;68323;49.394;8.434;2023-08-21T05:55:41;6.57;;;5.90;;
19816;SDS011;68323;49.394;8.434;2023-08-21T05:58:07;6.88;;;6.18;;
19816;SDS011;68323;49.394;8.434;2023-08-21T06:00:33;7.18;;;6.13;;
19816;SDS011;68323;49.394;8.434;2023-08-21T06:03:00;6.28;;;5.68;;
19816;SDS011;68323;49.394;8.434;2023-08-21T06:05:25;9.48;;;6.93;;
19816;SDS011;68323;49.394;8.434;2023-08-21T06:07:51;8.02;;;6.65;;
19816;SDS011;68323;49.394;8.434;2023-08-21T06:10:16;6.55;;;5.90;;
19816;SDS011;68323;49.394;8.434;2023-08-21T06:12:42;6.28;;;5.65;;
19816;SDS011;68323;49.394;8.434;2023-08-21T06:15:08;6.40;;;5.80;;
19816;SDS011;68323;49.394;8.434;2023-08-21T06:17:35;7.65;;;6.43;;
19816;SDS011;68323;49.394;8.434;2023-08-21T06:20:01;7.07;;;6.35;;
19816;SDS011;68323;49.394;8.434;2023-08-21T06:22:28;6.95;;;6.25;;
19816;SDS011;68323;49.394;8.434;2023-08-21T06:24:53;6.63;;;5.90;;
19816;SDS011;68323;49.394;8.434;2023-08-21T06:27:19;7.20;;;6.50;;
19816;SDS011;68323;49.394;8.434;2023-08-21T06:29:44;8.68;;;7.57;;
19816;SDS011;68323;49.394;8.434;2023-08-21T06:32:10;8.07;;;6.85;;
19816;SDS011;68323;49.394;8.434;2023-08-21T06:34:36;7.20;;;6.50;;
19816;SDS011;68323;49.394;8.434;2023-08-21T06:37:02;7.60;;;6.80;;
19816;SDS011;68323;49.394;8.434;2023-08-21T06:39:28;7.93;;;6.68;;
19816;SDS011;68323;49.394;8.434;2023-08-21T06:41:53;8.38;;;6.75;;
19816;SDS011;68323;49.394;8.434;2023-08-21T06:44:19;7.40;;;6.60;;
19816;SDS011;68323;49.394;8.434;2023-08-21T06:46:45;7.63;;;6.47;;
19816;SDS011;68323;49.394;8.434;2023-08-21T06:49:11;7.10;;;6.32;;
19816;SDS011;68323;49.394;8.434;2023-08-21T06:51:36;6.82;;;6.22;;
19816;SDS011;68323;49.394;8.434;2023-08-21T06:54:02;6.75;;;6.07;;
19816;SDS011;68323;49.394;8.434;2023-08-21T06:56:28;6.78;;;6.07;;
19816;SDS011;68323;49.394;8.434;2023-08-21T06:58:53;7.68;;;6.85;;
19816;SDS011;68323;49.394;8.434;2023-08-21T07:01:20;6.72;;;6.03;;
19816;SDS011;68323;49.394;8.434;2023-08-21T07:03:46;6.78;;;6.07;;
19816;SDS011;68323;49.394;8.434;2023-08-21T07:06:11;6.35;;;5.53;;
19816;SDS011;68323;49.394;8.434;2023-08-21T07:08:37;6.50;;;5.80;;
19816;SDS011;68323;49.394;8.434;2023-08-21T07:11:05;6.53;;;5.88;;
19816;SDS011;68323;49.394;8.434;2023-08-21T07:13:33;6.90;;;6.22;;
19816;SDS011;68323;49.394;8.434;2023-08-21T07:16:00;6.80;;;6.20;;
19816;SDS011;68323;49.394;8.434;2023-08-21T07:18:31;6.75;;;6.00;;
19816;SDS011;68323;49.394;8.434;2023-08-21T07:20:58;6.35;;;5.75;;
19816;SDS011;68323;49.394;8.434;2023-08-21T07:23:23;7.75;;;6.47;;
19816;SDS011;68323;49.394;8.434;2023-08-21T07:25:49;8.30;;;6.50;;
19816;SDS011;68323;49.394;8.434;2023-08-21T07:28:14;7.00;;;6.30;;
19816;SDS011;68323;49.394;8.434;2023-08-21T07:30:40;8.05;;;6.18;;
19816;SDS011;68323;49.394;8.434;2023-08-21T07:33:06;7.00;;;6.30;;
19816;SDS011;68323;49.394;8.434;2023-08-21T07:35:32;8.18;;;5.68;;
19816;SDS011;68323;49.394;8.434;2023-08-21T07:37:57;7.57;;;6.22;;
19816;SDS011;68323;49.394;8.434;2023-08-21T07:40:23;7.43;;;6.72;;
19816;SDS011;68323;49.394;8.434;2023-08-21T07:42:49;6.68;;;6.07;;
19816;SDS011;68323;49.394;8.434;2023-08-21T07:45:15;7.72;;;6.93;;
19816;SDS011;68323;49.394;8.434;2023-08-21T07:47:40;7.03;;;5.60;;
19816;SDS011;68323;49.394;8.434;2023-08-21T07:50:06;7.28;;;6.40;;
19816;SDS011;68323;49.394;8.434;2023-08-21T07:52:32;7.38;;;6.65;;
19816;SDS011;68323;49.394;8.434;2023-08-21T07:54:58;7.43;;;6.25;;
19816;SDS011;68323;49.394;8.434;2023-08-21T07:57:25;7.43;;;6.75;;
19816;SDS011;68323;49.394;8.434;2023-08-21T07:59:55;7.05;;;6.45;;
19816;SDS011;68323;49.394;8.434;2023-08-21T08:02:20;7.45;;;6.75;;
19816;SDS011;68323;49.394;8.434;2023-08-21T08:04:46;6.95;;;6.35;;
19816;SDS011;68323;49.394;8.434;2023-08-21T08:07:12;10.55;;;7.57;;
19816;SDS011;68323;49.394;8.434;2023-08-21T08:09:38;7.20;;;6.60;;
19816;SDS011;68323;49.394;8.434;2023-08-21T08:12:04;7.38;;;6.68;;
19816;SDS011;68323;49.394;8.434;2023-08-21T08:14:30;6.78;;;6.18;;
19816;SDS011;68323;49.394;8.434;2023-08-21T08:16:55;7.05;;;6.35;;
19816;SDS011;68323;49.394;8.434;2023-08-21T08:19:21;7.35;;;6.50;;
19816;SDS011;68323;49.394;8.434;2023-08-21T08:21:46;6.78;;;6.22;;
19816;SDS011;68323;49.394;8.434;2023-08-21T08:24:12;7.40;;;6.75;;
19816;SDS011;68323;49.394;8.434;2023-08-21T08:26:38;7.25;;;6.57;;
19816;SDS011;68323;49.394;8.434;2023-08-21T08:29:03;8.23;;;7.32;;
19816;SDS011;68323;49.394;8.434;2023-08-21T08:31:30;7.40;;;6.70;;
19816;SDS011;68323;49.394;8.434;2023-08-21T08:33:56;7.20;;;6.60;;
19816;SDS011;68323;49.394;8.434;2023-08-21T08:36:21;7.60;;;6.90;;
19816;SDS011;68323;49.394;8.434;2023-08-21T08:38:47;7.55;;;6.90;;
19816;SDS011;68323;49.394;8.434;2023-08-21T08:41:14;9.10;;;6.90;;
19816;SDS011;68323;49.394;8.434;2023-08-21T08:44:14;7.28;;;6.60;;
19816;SDS011;68323;49.394;8.434;2023-08-21T08:46:41;7.30;;;6.70;;
19816;SDS011;68323;49.394;8.434;2023-08-21T08:49:07;7.63;;;6.93;;
19816;SDS011;68323;49.394;8.434;2023-08-21T08:51:34;7.53;;;6.82;;
19816;SDS011;68323;49.394;8.434;2023-08-21T08:54:02;6.72;;;6.13;;
19816;SDS011;68323;49.394;8.434;2023-08-21T08:56:28;7.15;;;6.65;;
19816;SDS011;68323;49.394;8.434;2023-08-21T08:58:54;7.05;;;6.38;;
19816;SDS011;68323;49.394;8.434;2023-08-21T09:01:19;7.82;;;7.22;;
19816;SDS011;68323;49.394;8.434;2023-08-21T09:03:45;7.30;;;6.70;;
19816;SDS011;68323;49.394;8.434;2023-08-21T09:06:11;7.15;;;6.25;;
19816;SDS011;68323;49.394;8.434;2023-08-21T09:08:36;7.82;;;7.13;;
19816;SDS011;68323;49.394;8.434;2023-08-21T09:11:02;8.05;;;7.30;;
19816;SDS011;68323;49.394;8.434;2023-08-21T09:13:30;7.60;;;7.00;;
19816;SDS011;68323;49.394;8.434;2023-08-21T09:15:57;7.15;;;6.45;;
19816;SDS011;68323;49.394;8.434;2023-08-21T09:18:24;8.27;;;7.57;;
19816;SDS011;68323;49.394;8.434;2023-08-21T09:20:49;7.47;;;6.88;;
19816;SDS011;68323;49.394;8.434;2023-08-21T09:23:15;7.50;;;6.90;;
19816;SDS011;68323;49.394;8.434;2023-08-21T09:25:43;7.72;;;7.13;;
19816;SDS011;68323;49.394;8.434;2023-08-21T09:28:12;6.50;;;6.00;;
19816;SDS011;68323;49.394;8.434;2023-08-21T09:33:14;7.65;;;6.90;;
19816;SDS011;68323;49.394;8.434;2023-08-21T09:35:43;7.30;;;6.65;;
19816;SDS011;68323;49.394;8.434;2023-08-21T09:38:09;7.10;;;6.50;;
19816;SDS011;68323;49.394;8.434;2023-08-21T09:40:38;7.03;;;6.50;;
19816;SDS011;68323;49.394;8.434;2023-08-21T09:43:08;7.20;;;6.63;;
19816;SDS011;68323;49.394;8.434;2023-08-21T09:45:36;6.82;;;6.32;;
19816;SDS011;68323;49.394;8.434;2023-08-21T09:48:02;6.65;;;6.15;;
19816;SDS011;68323;49.394;8.434;2023-08-21T09:50:29;7.38;;;6.57;;
19816;SDS011;68323;49.394;8.434;2023-08-21T09:52:56;7.70;;;7.10;;
19816;SDS011;68323;49.394;8.434;2023-08-21T09:55:23;6.97;;;6.38;;
19816;SDS011;68323;49.394;8.434;2023-08-21T09:57:51;7.10;;;6.53;;
19816;SDS011;68323;49.394;8.434;2023-08-21T10:00:23;7.53;;;6.82;;
19816;SDS011;68323;49.394;8.434;2023-08-21T10:02:58;7.82;;;6.80;;
19816;SDS011;68323;49.394;8.434;2023-08-21T10:05:26;7.03;;;6.32;;
19816;SDS011;68323;49.394;8.434;2023-08-21T10:07:53;6.43;;;5.90;;
19816;SDS011;68323;49.394;8.434;2023-08-21T10:10:20;6.68;;;6.15;;
19816;SDS011;68323;49.394;8.434;2023-08-21T10:12:47;6.90;;;6.30;;
19816;SDS011;68323;49.394;8.434;2023-08-21T10:15:13;6.47;;;5.90;;
19816;SDS011;68323;49.394;8.434;2023-08-21T10:17:41;6.93;;;6.32;;
19816;SDS011;68323;49.394;8.434;2023-08-21T10:20:08;5.63;;;5.15;;
19816;SDS011;68323;49.394;8.434;2023-08-21T10:23:00;5.82;;;5.43;;
19816;SDS011;68323;49.394;8.434;2023-08-21T10:25:26;5.65;;;5.15;;
19816;SDS011;68323;49.394;8.434;2023-08-21T10:27:52;5.32;;;4.82;;
19816;SDS011;68323;49.394;8.434;2023-08-21T10:30:26;4.75;;;4.35;;
19816;SDS011;68323;49.394;8.434;2023-08-21T10:32:53;4.93;;;4.53;;
19816;SDS011;68323;49.394;8.434;2023-08-21T10:35:25;5.00;;;4.60;;
19816;SDS011;68323;49.394;8.434;2023-08-21T10:38:07;5.35;;;4.85;;
19816;SDS011;68323;49.394;8.434;2023-08-21T10:40:34;4.80;;;4.40;;
19816;SDS011;68323;49.394;8.434;2023-08-21T10:43:00;4.65;;;4.30;;
19816;SDS011;68323;49.394;8.434;2023-08-21T10:45:28;5.45;;;4.95;;
19816;SDS011;68323;49.394;8.434;2023-08-21T10:48:00;5.35;;;4.75;;
19816;SDS011;68323;49.394;8.434;2023-08-21T10:50:27;5.50;;;4.85;;
19816;SDS011;68323;49.394;8.434;2023-08-21T10:52:53;4.75;;;4.35;;
19816;SDS011;68323;49.394;8.434;2023-08-21T10:55:19;5.15;;;4.65;;
19816;SDS011;68323;49.394;8.434;2023-08-21T10:57:46;5.47;;;4.97;;
19816;SDS011;68323;49.394;8.434;2023-08-21T11:00:14;5.70;;;5.15;;
19816;SDS011;68323;49.394;8.434;2023-08-21T11:02:45;5.53;;;4.93;;
19816;SDS011;68323;49.394;8.434;2023-08-21T11:05:13;5.45;;;4.95;;
19816;SDS011;68323;49.394;8.434;2023-08-21T11:07:40;6.32;;;4.30;;
19816;SDS011;68323;49.394;8.434;2023-08-21T11:10:11;4.60;;;4.00;;
19816;SDS011;68323;49.394;8.434;2023-08-21T11:12:38;5.00;;;4.50;;
19816;SDS011;68323;49.394;8.434;2023-08-21T11:15:16;4.47;;;3.90;;
19816;SDS011;68323;49.394;8.434;2023-08-21T11:17:42;5.97;;;4.25;;
19816;SDS011;68323;49.394;8.434;2023-08-21T11:20:15;4.00;;;3.70;;
19816;SDS011;68323;49.394;8.434;2023-08-21T11:22:41;4.40;;;4.00;;
19816;SDS011;68323;49.394;8.434;2023-08-21T11:25:06;4.20;;;3.80;;
19816;SDS011;68323;49.394;8.434;2023-08-21T11:27:32;3.97;;;3.60;;
19816;SDS011;68323;49.394;8.434;2023-08-21T11:29:57;4.25;;;3.85;;
19816;SDS011;68323;49.394;8.434;2023-08-21T11:32:23;5.68;;;4.45;;
19816;SDS011;68323;49.394;8.434;2023-08-21T11:34:52;4.45;;;3.90;;
19816;SDS011;68323;49.394;8.434;2023-08-21T11:37:20;4.72;;;3.92;;
19816;SDS011;68323;49.394;8.434;2023-08-21T11:39:51;5.47;;;3.97;;
19816;SDS011;68323;49.394;8.434;2023-08-21T11:42:18;4.30;;;3.90;;
19816;SDS011;68323;49.394;8.434;2023-08-21T11:44:51;5.68;;;4.10;;
19816;SDS011;68323;49.394;8.434;2023-08-21T11:47:19;5.38;;;3.80;;
19816;SDS011;68323;49.394;8.434;2023-08-21T11:49:45;4.00;;;3.70;;
19816;SDS011;68323;49.394;8.434;2023-08-21T11:52:21;4.70;;;3.78;;
19816;SDS011;68323;49.394;8.434;2023-08-21T11:54:49;4.72;;;3.90;;
19816;SDS011;68323;49.394;8.434;2023-08-21T11:57:16;4.30;;;3.90;;
19816;SDS011;68323;49.394;8.434;2023-08-21T11:59:42;4.80;;;4.30;;
19816;SDS011;68323;49.394;8.434;2023-08-21T12:02:14;4.85;;;4.10;;
19816;SDS011;68323;49.394;8.434;2023-08-21T12:04:42;4.35;;;3.83;;
19816;SDS011;68323;49.394;8.434;2023-08-21T12:07:08;4.25;;;3.85;;
19816;SDS011;68323;49.394;8.434;2023-08-21T12:09:34;3.60;;;3.03;;
19816;SDS011;68323;49.394;8.434;2023-08-21T12:11:59;5.07;;;3.80;;
19816;SDS011;68323;49.394;8.434;2023-08-21T12:14:28;4.50;;;3.58;;
19816;SDS011;68323;49.394;8.434;2023-08-21T12:16:54;4.30;;;3.90;;
19816;SDS011;68323;49.394;8.434;2023-08-21T12:19:21;4.88;;;4.25;;
19816;SDS011;68323;49.394;8.434;2023-08-21T12:21:48;3.80;;;3.50;;
19816;SDS011;68323;49.394;8.434;2023-08-21T12:24:13;3.97;;;3.58;;
19816;SDS011;68323;49.394;8.434;2023-08-21T12:26:39;5.05;;;3.67;;
19816;SDS011;68323;49.394;8.434;2023-08-21T12:29:04;5.07;;;3.88;;
19816;SDS011;68323;49.394;8.434;2023-08-21T12:31:30;4.15;;;3.50;;
19816;SDS011;68323;49.394;8.434;2023-08-21T12:33:56;4.35;;;3.58;;
19816;SDS011;68323;49.394;8.434;2023-08-21T12:36:21;4.07;;;3.67;;
19816;SDS011;68323;49.394;8.434;2023-08-21T12:38:47;3.90;;;3.40;;
19816;SDS011;68323;49.394;8.434;2023-08-21T12:41:12;3.88;;;3.47;;
19816;SDS011;68323;49.394;8.434;2023-08-21T12:43:38;5.90;;;4.47;;
19816;SDS011;68323;49.394;8.434;2023-08-21T12:46:04;4.97;;;3.90;;
19816;SDS011;68323;49.394;8.434;2023-08-21T12:48:30;3.67;;;3.30;;
19816;SDS011;68323;49.394;8.434;2023-08-21T12:50:55;3.95;;;3.55;;
19816;SDS011;68323;49.394;8.434;2023-08-21T12:53:21;4.13;;;3.22;;
19816;SDS011;68323;49.394;8.434;2023-08-21T12:55:46;3.80;;;3.50;;
19816;SDS011;68323;49.394;8.434;2023-08-21T12:58:12;3.90;;;3.50;;
19816;SDS011;68323;49.394;8.434;2023-08-21T13:00:38;3.60;;;3.30;;
19816;SDS011;68323;49.394;8.434;2023-08-21T13:03:04;3.22;;;2.92;;
19816;SDS011;68323;49.394;8.434;2023-08-21T13:05:30;3.17;;;2.90;;
19816;SDS011;68323;49.394;8.434;2023-08-21T13:07:55;3.10;;;2.80;;
19816;SDS011;68323;49.394;8.434;2023-08-21T13:10:21;3.00;;;2.75;;
19816;SDS011;68323;49.394;8.434;2023-08-21T13:12:47;2.95;;;2.65;;
19816;SDS011;68323;49.394;8.434;2023-08-21T13:15:13;3.70;;;3.40;;
19816;SDS011;68323;49.394;8.434;2023-08-21T13:17:39;3.55;;;3.00;;
19816;SDS011;68323;49.394;8.434;2023-08-21T13:20:05;3.28;;;2.97;;
19816;SDS011;68323;49.394;8.434;2023-08-21T13:22:47;3.38;;;3.08;;
19816;SDS011;68323;49.394;8.434;2023-08-21T13:25:23;3.95;;;3.55;;
19816;SDS011;68323;49.394;8.434;2023-08-21T13:27:49;3.75;;;3.45;;
19816;SDS011;68323;49.394;8.434;2023-08-21T13:30:16;3.38;;;3.08;;
19816;SDS011;68323;49.394;8.434;2023-08-21T13:32:42;3.53;;;3.22;;
19816;SDS011;68323;49.394;8.434;2023-08-21T13:35:08;3.75;;;3.40;;
19816;SDS011;68323;49.394;8.434;2023-08-21T13:37:34;3.40;;;3.10;;
19816;SDS011;68323;49.394;8.434;2023-08-21T13:40:00;3.10;;;2.80;;
19816;SDS011;68323;49.394;8.434;2023-08-21T13:42:33;3.35;;;3.05;;
19816;SDS011;68323;49.394;8.434;2023-08-21T13:45:02;3.33;;;3.03;;
19816;SDS011;68323;49.394;8.434;2023-08-21T13:47:28;3.70;;;3.28;;
19816;SDS011;68323;49.394;8.434;2023-08-21T13:49:54;3.50;;;3.20;;
19816;SDS011;68323;49.394;8.434;2023-08-21T13:52:19;4.80;;;3.33;;
19816;SDS011;68323;49.394;8.434;2023-08-21T13:54:45;3.78;;;2.80;;
19816;SDS011;68323;49.394;8.434;2023-08-21T13:57:11;3.63;;;3.20;;
19816;SDS011;68323;49.394;8.434;2023-08-21T13:59:37;3.40;;;3.10;;
19816;SDS011;68323;49.394;8.434;2023-08-21T14:02:02;3.65;;;2.80;;
19816;SDS011;68323;49.394;8.434;2023-08-21T14:04:29;4.03;;;3.33;;
19816;SDS011;68323;49.394;8.434;2023-08-21T14:06:57;3.65;;;3.35;;
19816;SDS011;68323;49.394;8.434;2023-08-21T14:09:22;4.53;;;3.60;;
19816;SDS011;68323;49.394;8.434;2023-08-21T14:11:48;3.90;;;3.40;;
19816;SDS011;68323;49.394;8.434;2023-08-21T14:14:14;4.90;;;3.65;;
19816;SDS011;68323;49.394;8.434;2023-08-21T14:16:39;3.58;;;3.05;;
19816;SDS011;68323;49.394;8.434;2023-08-21T14:19:05;4.75;;;3.78;;
19816;SDS011;68323;49.394;8.434;2023-08-21T14:21:30;4.13;;;3.42;;
19816;SDS011;68323;49.394;8.434;2023-08-21T14:23:56;4.50;;;3.92;;
19816;SDS011;68323;49.394;8.434;2023-08-21T14:26:21;3.55;;;3.25;;
19816;SDS011;68323;49.394;8.434;2023-08-21T14:28:47;7.88;;;3.90;;
19816;SDS011;68323;49.394;8.434;2023-08-21T14:31:15;4.10;;;3.30;;
19816;SDS011;68323;49.394;8.434;2023-08-21T14:33:41;5.57;;;3.15;;
19816;SDS011;68323;49.394;8.434;2023-08-21T14:36:07;3.17;;;2.90;;
19816;SDS011;68323;49.394;8.434;2023-08-21T14:38:32;4.88;;;3.30;;
19816;SDS011;68323;49.394;8.434;2023-08-21T14:40:58;3.35;;;3.05;;
19816;SDS011;68323;49.394;8.434;2023-08-21T14:43:23;3.50;;;3.20;;
19816;SDS011;68323;49.394;8.434;2023-08-21T14:45:49;3.60;;;3.30;;